sensor_id;sensor_type;location;lat;lon;timestamp;P1;durP1;ratioP1;P2;durP2;ratioP2
24335;SDS011;33098;52.400;16.880;2022-09-17T00:01:16;4.30;;;2.00;;
24335;SDS011;33098;52.400;16.880;2022-09-17T00:03:49;4.90;;;2.10;;
24335;SDS011;33098;52.400;16.880;2022-09-17T00:06:21;3.50;;;1.80;;
24335;SDS011;33098;52.400;16.880;2022-09-17T00:08:49;2.90;;;1.80;;
24335;SDS011;33098;52.400;16.880;2022-09-17T00:11:22;4.80;;;2.10;;
24335;SDS011;33098;52.400;16.880;2022-09-17T00:13:57;5.90;;;1.80;;
24335;SDS011;33098;52.400;16.880;2022-09-17T00:16:29;4.40;;;1.70;;
24335;SDS011;33098;52.400;16.880;2022-09-17T00:19:05;3.30;;;1.90;;
24335;SDS011;33098;52.400;16.880;2022-09-17T00:21:35;3.60;;;1.70;;
24335;SDS011;33098;52.400;16.880;2022-09-17T00:24:02;4.00;;;1.70;;
24335;SDS011;33098;52.400;16.880;2022-09-17T00:26:31;3.50;;;1.40;;
24335;SDS011;33098;52.400;16.880;2022-09-17T00:28:59;3.70;;;1.70;;
24335;SDS011;33098;52.400;16.880;2022-09-17T00:31:27;3.80;;;1.60;;
24335;SDS011;33098;52.400;16.880;2022-09-17T00:33:54;4.10;;;1.70;;
24335;SDS011;33098;52.400;16.880;2022-09-17T00:36:22;4.60;;;1.50;;
24335;SDS011;33098;52.400;16.880;2022-09-17T00:38:52;3.40;;;1.90;;
24335;SDS011;33098;52.400;16.880;2022-09-17T00:41:21;2.50;;;1.70;;
24335;SDS011;33098;52.400;16.880;2022-09-17T00:43:51;4.10;;;1.70;;
24335;SDS011;33098;52.400;16.880;2022-09-17T00:46:25;3.10;;;1.60;;
24335;SDS011;33098;52.400;16.880;2022-09-17T00:49:15;3.40;;;1.50;;
24335;SDS011;33098;52.400;16.880;2022-09-17T00:51:52;3.50;;;1.80;;
24335;SDS011;33098;52.400;16.880;2022-09-17T00:54:23;3.00;;;1.80;;
24335;SDS011;33098;52.400;16.880;2022-09-17T00:56:50;6.50;;;2.10;;
24335;SDS011;33098;52.400;16.880;2022-09-17T00:59:17;3.20;;;1.60;;
24335;SDS011;33098;52.400;16.880;2022-09-17T01:01:45;3.60;;;1.60;;
24335;SDS011;33098;52.400;16.880;2022-09-17T01:04:15;3.20;;;1.50;;
24335;SDS011;33098;52.400;16.880;2022-09-17T01:06:53;4.40;;;1.50;;
24335;SDS011;33098;52.400;16.880;2022-09-17T01:09:27;2.70;;;1.40;;
24335;SDS011;33098;52.400;16.880;2022-09-17T01:20:46;3.30;;;1.30;;
24335;SDS011;33098;52.400;16.880;2022-09-17T01:25:54;2.80;;;1.30;;
24335;SDS011;33098;52.400;16.880;2022-09-17T01:33:50;5.00;;;1.40;;
24335;SDS011;33098;52.400;16.880;2022-09-17T01:39:31;3.80;;;1.30;;
24335;SDS011;33098;52.400;16.880;2022-09-17T01:42:08;3.70;;;1.40;;
24335;SDS011;33098;52.400;16.880;2022-09-17T01:44:52;4.20;;;1.40;;
24335;SDS011;33098;52.400;16.880;2022-09-17T01:47:30;2.70;;;1.30;;
24335;SDS011;33098;52.400;16.880;2022-09-17T01:50:10;6.00;;;1.70;;
24335;SDS011;33098;52.400;16.880;2022-09-17T01:52:43;5.50;;;2.20;;
24335;SDS011;33098;52.400;16.880;2022-09-17T02:02:05;4.00;;;1.50;;
24335;SDS011;33098;52.400;16.880;2022-09-17T02:04:45;4.30;;;1.50;;
24335;SDS011;33098;52.400;16.880;2022-09-17T02:07:17;2.80;;;1.60;;
24335;SDS011;33098;52.400;16.880;2022-09-17T02:10:07;5.00;;;1.40;;
24335;SDS011;33098;52.400;16.880;2022-09-17T02:12:38;2.50;;;1.40;;
24335;SDS011;33098;52.400;16.880;2022-09-17T02:15:13;2.70;;;1.40;;
24335;SDS011;33098;52.400;16.880;2022-09-17T02:17:49;4.20;;;1.70;;
24335;SDS011;33098;52.400;16.880;2022-09-17T02:20:29;3.40;;;1.80;;
24335;SDS011;33098;52.400;16.880;2022-09-17T02:23:17;2.50;;;1.50;;
24335;SDS011;33098;52.400;16.880;2022-09-17T02:25:58;2.50;;;1.50;;
24335;SDS011;33098;52.400;16.880;2022-09-17T02:28:48;2.70;;;1.50;;
24335;SDS011;33098;52.400;16.880;2022-09-17T02:31:19;3.80;;;1.40;;
24335;SDS011;33098;52.400;16.880;2022-09-17T02:33:47;3.10;;;1.60;;
24335;SDS011;33098;52.400;16.880;2022-09-17T02:36:19;2.20;;;1.30;;
24335;SDS011;33098;52.400;16.880;2022-09-17T02:38:46;1.70;;;1.40;;
24335;SDS011;33098;52.400;16.880;2022-09-17T02:41:14;4.20;;;1.50;;
24335;SDS011;33098;52.400;16.880;2022-09-17T02:49:38;1.90;;;1.50;;
24335;SDS011;33098;52.400;16.880;2022-09-17T03:00:53;2.40;;;1.40;;
24335;SDS011;33098;52.400;16.880;2022-09-17T03:03:34;4.20;;;1.90;;
24335;SDS011;33098;52.400;16.880;2022-09-17T03:06:05;2.80;;;1.70;;
24335;SDS011;33098;52.400;16.880;2022-09-17T03:08:33;1.70;;;1.40;;
24335;SDS011;33098;52.400;16.880;2022-09-17T03:11:03;3.70;;;1.40;;
24335;SDS011;33098;52.400;16.880;2022-09-17T03:13:31;2.20;;;1.40;;
24335;SDS011;33098;52.400;16.880;2022-09-17T03:15:59;2.70;;;1.40;;
24335;SDS011;33098;52.400;16.880;2022-09-17T03:18:26;1.50;;;1.30;;
24335;SDS011;33098;52.400;16.880;2022-09-17T03:20:53;1.40;;;1.20;;
24335;SDS011;33098;52.400;16.880;2022-09-17T03:23:19;1.60;;;1.30;;
24335;SDS011;33098;52.400;16.880;2022-09-17T03:25:46;2.20;;;1.40;;
24335;SDS011;33098;52.400;16.880;2022-09-17T03:28:17;1.30;;;1.10;;
24335;SDS011;33098;52.400;16.880;2022-09-17T03:30:44;1.40;;;1.30;;
24335;SDS011;33098;52.400;16.880;2022-09-17T03:33:11;1.40;;;1.10;;
24335;SDS011;33098;52.400;16.880;2022-09-17T03:35:41;1.20;;;1.00;;
24335;SDS011;33098;52.400;16.880;2022-09-17T03:38:08;1.60;;;1.20;;
24335;SDS011;33098;52.400;16.880;2022-09-17T03:40:35;2.00;;;1.20;;
24335;SDS011;33098;52.400;16.880;2022-09-17T03:43:02;1.70;;;1.30;;
24335;SDS011;33098;52.400;16.880;2022-09-17T03:45:28;1.80;;;1.20;;
24335;SDS011;33098;52.400;16.880;2022-09-17T03:47:55;2.20;;;1.10;;
24335;SDS011;33098;52.400;16.880;2022-09-17T03:50:22;1.60;;;1.20;;
24335;SDS011;33098;52.400;16.880;2022-09-17T03:52:49;1.50;;;1.10;;
24335;SDS011;33098;52.400;16.880;2022-09-17T03:55:16;1.20;;;1.10;;
24335;SDS011;33098;52.400;16.880;2022-09-17T03:57:42;1.20;;;1.10;;
24335;SDS011;33098;52.400;16.880;2022-09-17T04:00:09;1.70;;;1.30;;
24335;SDS011;33098;52.400;16.880;2022-09-17T04:02:40;1.60;;;1.30;;
24335;SDS011;33098;52.400;16.880;2022-09-17T04:05:07;1.20;;;1.10;;
24335;SDS011;33098;52.400;16.880;2022-09-17T04:07:34;1.40;;;1.30;;
24335;SDS011;33098;52.400;16.880;2022-09-17T04:10:00;1.40;;;1.30;;
24335;SDS011;33098;52.400;16.880;2022-09-17T04:12:27;2.00;;;1.30;;
24335;SDS011;33098;52.400;16.880;2022-09-17T04:14:54;1.40;;;1.20;;
24335;SDS011;33098;52.400;16.880;2022-09-17T04:17:20;1.70;;;1.50;;
24335;SDS011;33098;52.400;16.880;2022-09-17T04:19:47;1.30;;;1.20;;
24335;SDS011;33098;52.400;16.880;2022-09-17T04:22:13;1.40;;;1.30;;
24335;SDS011;33098;52.400;16.880;2022-09-17T04:24:40;1.40;;;1.30;;
24335;SDS011;33098;52.400;16.880;2022-09-17T04:27:06;1.30;;;1.20;;
24335;SDS011;33098;52.400;16.880;2022-09-17T04:29:34;1.90;;;1.20;;
24335;SDS011;33098;52.400;16.880;2022-09-17T04:32:01;1.90;;;1.20;;
24335;SDS011;33098;52.400;16.880;2022-09-17T04:34:28;1.10;;;1.00;;
24335;SDS011;33098;52.400;16.880;2022-09-17T04:36:54;1.50;;;1.00;;
24335;SDS011;33098;52.400;16.880;2022-09-17T04:39:21;1.00;;;1.00;;
24335;SDS011;33098;52.400;16.880;2022-09-17T04:41:47;1.60;;;1.00;;
24335;SDS011;33098;52.400;16.880;2022-09-17T04:44:14;1.20;;;1.10;;
24335;SDS011;33098;52.400;16.880;2022-09-17T04:46:40;1.40;;;1.10;;
24335;SDS011;33098;52.400;16.880;2022-09-17T04:49:07;2.30;;;1.10;;
24335;SDS011;33098;52.400;16.880;2022-09-17T04:51:34;3.20;;;1.10;;
24335;SDS011;33098;52.400;16.880;2022-09-17T04:54:00;0.90;;;0.90;;
24335;SDS011;33098;52.400;16.880;2022-09-17T04:56:27;1.20;;;0.90;;
24335;SDS011;33098;52.400;16.880;2022-09-17T04:58:53;1.00;;;0.90;;
24335;SDS011;33098;52.400;16.880;2022-09-17T05:01:22;1.70;;;1.00;;
24335;SDS011;33098;52.400;16.880;2022-09-17T05:03:50;1.20;;;1.10;;
24335;SDS011;33098;52.400;16.880;2022-09-17T05:06:17;1.40;;;0.90;;
24335;SDS011;33098;52.400;16.880;2022-09-17T05:08:43;1.00;;;1.00;;
24335;SDS011;33098;52.400;16.880;2022-09-17T05:11:10;1.00;;;0.90;;
24335;SDS011;33098;52.400;16.880;2022-09-17T05:13:36;1.50;;;1.10;;
24335;SDS011;33098;52.400;16.880;2022-09-17T05:16:03;1.10;;;1.00;;
24335;SDS011;33098;52.400;16.880;2022-09-17T05:18:32;1.10;;;1.00;;
24335;SDS011;33098;52.400;16.880;2022-09-17T05:20:59;1.30;;;1.20;;
24335;SDS011;33098;52.400;16.880;2022-09-17T05:23:25;1.20;;;1.00;;
24335;SDS011;33098;52.400;16.880;2022-09-17T05:25:51;1.60;;;1.20;;
24335;SDS011;33098;52.400;16.880;2022-09-17T05:28:18;1.70;;;1.40;;
24335;SDS011;33098;52.400;16.880;2022-09-17T05:30:44;1.40;;;1.30;;
24335;SDS011;33098;52.400;16.880;2022-09-17T05:33:11;1.40;;;1.30;;
24335;SDS011;33098;52.400;16.880;2022-09-17T05:35:37;2.80;;;1.80;;
24335;SDS011;33098;52.400;16.880;2022-09-17T05:38:04;1.50;;;1.40;;
24335;SDS011;33098;52.400;16.880;2022-09-17T05:40:33;1.70;;;1.40;;
24335;SDS011;33098;52.400;16.880;2022-09-17T05:43:01;1.30;;;1.20;;
24335;SDS011;33098;52.400;16.880;2022-09-17T05:45:31;1.40;;;1.30;;
24335;SDS011;33098;52.400;16.880;2022-09-17T05:47:59;1.50;;;1.40;;
24335;SDS011;33098;52.400;16.880;2022-09-17T05:50:27;2.00;;;1.40;;
24335;SDS011;33098;52.400;16.880;2022-09-17T05:52:55;1.30;;;1.20;;
24335;SDS011;33098;52.400;16.880;2022-09-17T05:55:22;1.00;;;1.00;;
24335;SDS011;33098;52.400;16.880;2022-09-17T05:57:49;2.40;;;1.30;;
24335;SDS011;33098;52.400;16.880;2022-09-17T06:00:16;1.60;;;1.20;;
24335;SDS011;33098;52.400;16.880;2022-09-17T06:02:43;1.40;;;1.10;;
24335;SDS011;33098;52.400;16.880;2022-09-17T06:05:10;1.70;;;1.40;;
24335;SDS011;33098;52.400;16.880;2022-09-17T06:07:37;1.20;;;1.10;;
24335;SDS011;33098;52.400;16.880;2022-09-17T06:10:06;2.30;;;1.50;;
24335;SDS011;33098;52.400;16.880;2022-09-17T06:12:33;1.60;;;1.50;;
24335;SDS011;33098;52.400;16.880;2022-09-17T06:15:03;1.80;;;1.40;;
24335;SDS011;33098;52.400;16.880;2022-09-17T06:17:33;2.10;;;1.50;;
24335;SDS011;33098;52.400;16.880;2022-09-17T06:20:02;3.40;;;1.70;;
24335;SDS011;33098;52.400;16.880;2022-09-17T06:24:50;1.80;;;1.40;;
24335;SDS011;33098;52.400;16.880;2022-09-17T06:27:16;1.60;;;1.50;;
24335;SDS011;33098;52.400;16.880;2022-09-17T06:29:43;1.60;;;1.50;;
24335;SDS011;33098;52.400;16.880;2022-09-17T06:32:09;2.70;;;1.60;;
24335;SDS011;33098;52.400;16.880;2022-09-17T06:34:38;3.40;;;1.70;;
24335;SDS011;33098;52.400;16.880;2022-09-17T06:37:05;2.10;;;1.60;;
24335;SDS011;33098;52.400;16.880;2022-09-17T06:39:31;2.40;;;1.80;;
24335;SDS011;33098;52.400;16.880;2022-09-17T06:41:58;3.00;;;1.90;;
24335;SDS011;33098;52.400;16.880;2022-09-17T06:44:27;2.20;;;1.80;;
24335;SDS011;33098;52.400;16.880;2022-09-17T06:46:54;2.10;;;1.90;;
24335;SDS011;33098;52.400;16.880;2022-09-17T06:49:20;4.70;;;2.10;;
24335;SDS011;33098;52.400;16.880;2022-09-17T06:51:48;1.90;;;1.70;;
24335;SDS011;33098;52.400;16.880;2022-09-17T06:54:15;2.80;;;2.20;;
24335;SDS011;33098;52.400;16.880;2022-09-17T06:56:41;3.30;;;2.30;;
24335;SDS011;33098;52.400;16.880;2022-09-17T06:59:08;2.40;;;2.10;;
24335;SDS011;33098;52.400;16.880;2022-09-17T07:01:37;3.60;;;2.60;;
24335;SDS011;33098;52.400;16.880;2022-09-17T07:04:03;5.50;;;2.70;;
24335;SDS011;33098;52.400;16.880;2022-09-17T07:06:30;4.40;;;3.10;;
24335;SDS011;33098;52.400;16.880;2022-09-17T07:08:57;4.00;;;2.90;;
24335;SDS011;33098;52.400;16.880;2022-09-17T07:11:24;4.30;;;3.30;;
24335;SDS011;33098;52.400;16.880;2022-09-17T07:13:50;5.00;;;3.00;;
24335;SDS011;33098;52.400;16.880;2022-09-17T07:16:19;5.00;;;3.20;;
24335;SDS011;33098;52.400;16.880;2022-09-17T07:18:46;5.20;;;3.60;;
24335;SDS011;33098;52.400;16.880;2022-09-17T07:21:12;5.30;;;3.70;;
24335;SDS011;33098;52.400;16.880;2022-09-17T07:23:39;7.00;;;4.00;;
24335;SDS011;33098;52.400;16.880;2022-09-17T07:26:12;6.00;;;3.50;;
24335;SDS011;33098;52.400;16.880;2022-09-17T07:28:39;6.00;;;3.60;;
24335;SDS011;33098;52.400;16.880;2022-09-17T07:31:06;5.20;;;3.90;;
24335;SDS011;33098;52.400;16.880;2022-09-17T07:33:34;6.10;;;3.90;;
24335;SDS011;33098;52.400;16.880;2022-09-17T07:36:03;8.90;;;3.80;;
24335;SDS011;33098;52.400;16.880;2022-09-17T07:38:32;7.00;;;4.40;;
24335;SDS011;33098;52.400;16.880;2022-09-17T07:41:00;7.30;;;4.20;;
24335;SDS011;33098;52.400;16.880;2022-09-17T07:43:30;6.80;;;4.60;;
24335;SDS011;33098;52.400;16.880;2022-09-17T07:46:00;8.00;;;4.60;;
24335;SDS011;33098;52.400;16.880;2022-09-17T07:48:28;9.20;;;5.20;;
24335;SDS011;33098;52.400;16.880;2022-09-17T07:50:56;7.60;;;4.40;;
24335;SDS011;33098;52.400;16.880;2022-09-17T07:53:23;7.60;;;4.90;;
24335;SDS011;33098;52.400;16.880;2022-09-17T07:55:53;9.00;;;5.10;;
24335;SDS011;33098;52.400;16.880;2022-09-17T07:58:22;7.30;;;5.40;;
24335;SDS011;33098;52.400;16.880;2022-09-17T08:00:49;8.30;;;5.10;;
24335;SDS011;33098;52.400;16.880;2022-09-17T08:03:16;7.10;;;4.90;;
24335;SDS011;33098;52.400;16.880;2022-09-17T08:05:42;6.90;;;4.50;;
24335;SDS011;33098;52.400;16.880;2022-09-17T08:08:09;5.80;;;4.30;;
24335;SDS011;33098;52.400;16.880;2022-09-17T08:10:38;6.00;;;4.10;;
24335;SDS011;33098;52.400;16.880;2022-09-17T08:13:05;7.60;;;4.60;;
24335;SDS011;33098;52.400;16.880;2022-09-17T08:15:34;8.70;;;4.00;;
24335;SDS011;33098;52.400;16.880;2022-09-17T08:18:01;6.10;;;3.50;;
24335;SDS011;33098;52.400;16.880;2022-09-17T08:20:27;7.40;;;3.60;;
24335;SDS011;33098;52.400;16.880;2022-09-17T08:22:58;6.20;;;3.50;;
24335;SDS011;33098;52.400;16.880;2022-09-17T08:25:25;5.40;;;3.50;;
24335;SDS011;33098;52.400;16.880;2022-09-17T08:27:53;6.70;;;3.40;;
24335;SDS011;33098;52.400;16.880;2022-09-17T08:30:22;5.00;;;2.90;;
24335;SDS011;33098;52.400;16.880;2022-09-17T08:32:49;3.90;;;3.00;;
24335;SDS011;33098;52.400;16.880;2022-09-17T08:35:16;6.00;;;3.10;;
24335;SDS011;33098;52.400;16.880;2022-09-17T08:37:43;4.70;;;2.40;;
24335;SDS011;33098;52.400;16.880;2022-09-17T08:40:14;5.60;;;2.20;;
24335;SDS011;33098;52.400;16.880;2022-09-17T08:42:54;3.90;;;2.50;;
24335;SDS011;33098;52.400;16.880;2022-09-17T08:45:25;5.20;;;2.30;;
24335;SDS011;33098;52.400;16.880;2022-09-17T08:47:53;3.40;;;1.90;;
24335;SDS011;33098;52.400;16.880;2022-09-17T08:50:28;4.00;;;2.00;;
24335;SDS011;33098;52.400;16.880;2022-09-17T08:55:56;3.50;;;1.80;;
24335;SDS011;33098;52.400;16.880;2022-09-17T09:04:11;2.20;;;1.60;;
24335;SDS011;33098;52.400;16.880;2022-09-17T09:06:45;3.00;;;1.50;;
24335;SDS011;33098;52.400;16.880;2022-09-17T09:09:16;4.80;;;1.70;;
24335;SDS011;33098;52.400;16.880;2022-09-17T09:11:46;3.80;;;1.50;;
24335;SDS011;33098;52.400;16.880;2022-09-17T09:16:50;2.10;;;1.40;;
24335;SDS011;33098;52.400;16.880;2022-09-17T09:19:22;4.00;;;1.70;;
24335;SDS011;33098;52.400;16.880;2022-09-17T09:24:22;1.50;;;1.30;;
24335;SDS011;33098;52.400;16.880;2022-09-17T09:26:54;1.90;;;1.40;;
24335;SDS011;33098;52.400;16.880;2022-09-17T09:35:11;5.00;;;1.30;;
24335;SDS011;33098;52.400;16.880;2022-09-17T09:38:32;3.10;;;1.80;;
24335;SDS011;33098;52.400;16.880;2022-09-17T09:40:54;2.50;;;1.20;;
24335;SDS011;33098;52.400;16.880;2022-09-17T09:43:37;4.10;;;1.30;;
24335;SDS011;33098;52.400;16.880;2022-09-17T09:51:33;2.80;;;1.20;;
24335;SDS011;33098;52.400;16.880;2022-09-17T09:54:31;2.10;;;1.20;;
24335;SDS011;33098;52.400;16.880;2022-09-17T09:57:08;3.50;;;1.20;;
24335;SDS011;33098;52.400;16.880;2022-09-17T09:59:38;2.00;;;1.10;;
24335;SDS011;33098;52.400;16.880;2022-09-17T10:02:06;5.20;;;1.20;;
24335;SDS011;33098;52.400;16.880;2022-09-17T10:04:34;2.90;;;1.40;;
24335;SDS011;33098;52.400;16.880;2022-09-17T10:07:01;2.40;;;1.30;;
24335;SDS011;33098;52.400;16.880;2022-09-17T10:09:31;3.40;;;1.40;;
24335;SDS011;33098;52.400;16.880;2022-09-17T10:14:37;2.50;;;1.20;;
24335;SDS011;33098;52.400;16.880;2022-09-17T10:20:11;1.90;;;1.40;;
24335;SDS011;33098;52.400;16.880;2022-09-17T10:22:46;2.80;;;1.60;;
24335;SDS011;33098;52.400;16.880;2022-09-17T10:25:48;3.70;;;1.50;;
24335;SDS011;33098;52.400;16.880;2022-09-17T10:28:33;2.60;;;1.00;;
24335;SDS011;33098;52.400;16.880;2022-09-17T10:30:58;1.70;;;1.00;;
24335;SDS011;33098;52.400;16.880;2022-09-17T10:33:30;4.30;;;1.10;;
24335;SDS011;33098;52.400;16.880;2022-09-17T10:36:08;3.90;;;1.20;;
24335;SDS011;33098;52.400;16.880;2022-09-17T10:38:39;5.10;;;1.50;;
24335;SDS011;33098;52.400;16.880;2022-09-17T10:41:12;2.50;;;1.20;;
24335;SDS011;33098;52.400;16.880;2022-09-17T10:43:50;1.50;;;0.90;;
24335;SDS011;33098;52.400;16.880;2022-09-17T10:46:24;3.60;;;1.20;;
24335;SDS011;33098;52.400;16.880;2022-09-17T10:51:23;3.70;;;0.90;;
24335;SDS011;33098;52.400;16.880;2022-09-17T10:53:56;1.30;;;0.80;;
24335;SDS011;33098;52.400;16.880;2022-09-17T10:56:30;1.90;;;0.80;;
24335;SDS011;33098;52.400;16.880;2022-09-17T10:59:10;2.10;;;0.90;;
24335;SDS011;33098;52.400;16.880;2022-09-17T11:04:47;3.50;;;1.00;;
24335;SDS011;33098;52.400;16.880;2022-09-17T11:11:05;2.20;;;0.90;;
24335;SDS011;33098;52.400;16.880;2022-09-17T11:16:50;2.20;;;1.10;;
24335;SDS011;33098;52.400;16.880;2022-09-17T11:19:34;1.80;;;0.90;;
24335;SDS011;33098;52.400;16.880;2022-09-17T11:22:09;3.90;;;1.00;;
24335;SDS011;33098;52.400;16.880;2022-09-17T11:30:37;2.60;;;1.10;;
24335;SDS011;33098;52.400;16.880;2022-09-17T11:36:24;2.10;;;1.30;;
24335;SDS011;33098;52.400;16.880;2022-09-17T11:38:56;3.30;;;1.60;;
24335;SDS011;33098;52.400;16.880;2022-09-17T11:41:32;2.90;;;1.40;;
24335;SDS011;33098;52.400;16.880;2022-09-17T11:44:16;3.20;;;1.40;;
24335;SDS011;33098;52.400;16.880;2022-09-17T11:46:51;3.40;;;1.40;;
24335;SDS011;33098;52.400;16.880;2022-09-17T11:52:01;3.40;;;1.50;;
24335;SDS011;33098;52.400;16.880;2022-09-17T11:54:34;1.60;;;1.40;;
24335;SDS011;33098;52.400;16.880;2022-09-17T11:57:12;2.30;;;1.40;;
24335;SDS011;33098;52.400;16.880;2022-09-17T11:59:51;3.00;;;1.50;;
24335;SDS011;33098;52.400;16.880;2022-09-17T12:02:33;2.20;;;1.40;;
24335;SDS011;33098;52.400;16.880;2022-09-17T12:05:27;2.40;;;1.40;;
24335;SDS011;33098;52.400;16.880;2022-09-17T12:11:40;4.00;;;1.60;;
24335;SDS011;33098;52.400;16.880;2022-09-17T12:14:22;3.70;;;1.50;;
24335;SDS011;33098;52.400;16.880;2022-09-17T12:16:56;1.30;;;1.20;;
24335;SDS011;33098;52.400;16.880;2022-09-17T12:22:04;1.20;;;1.00;;
24335;SDS011;33098;52.400;16.880;2022-09-17T12:24:34;1.80;;;1.00;;
24335;SDS011;33098;52.400;16.880;2022-09-17T12:27:07;1.90;;;1.00;;
24335;SDS011;33098;52.400;16.880;2022-09-17T12:29:45;1.80;;;1.00;;
24335;SDS011;33098;52.400;16.880;2022-09-17T12:40:52;1.40;;;1.00;;
24335;SDS011;33098;52.400;16.880;2022-09-17T12:52:12;1.80;;;1.10;;
24335;SDS011;33098;52.400;16.880;2022-09-17T12:54:48;3.40;;;1.20;;
24335;SDS011;33098;52.400;16.880;2022-09-17T13:13:26;2.20;;;1.00;;
24335;SDS011;33098;52.400;16.880;2022-09-17T13:16:28;1.70;;;0.80;;
24335;SDS011;33098;52.400;16.880;2022-09-17T13:21:51;2.80;;;1.20;;
24335;SDS011;33098;52.400;16.880;2022-09-17T13:24:21;3.30;;;1.80;;
24335;SDS011;33098;52.400;16.880;2022-09-17T13:26:53;2.70;;;1.00;;
24335;SDS011;33098;52.400;16.880;2022-09-17T13:29:55;4.20;;;1.10;;
24335;SDS011;33098;52.400;16.880;2022-09-17T13:37:32;3.00;;;0.80;;
24335;SDS011;33098;52.400;16.880;2022-09-17T13:40:01;2.30;;;1.00;;
24335;SDS011;33098;52.400;16.880;2022-09-17T13:42:30;1.00;;;0.90;;
24335;SDS011;33098;52.400;16.880;2022-09-17T13:45:10;3.00;;;0.90;;
24335;SDS011;33098;52.400;16.880;2022-09-17T13:53:07;1.70;;;1.00;;
24335;SDS011;33098;52.400;16.880;2022-09-17T13:55:50;1.80;;;0.90;;
24335;SDS011;33098;52.400;16.880;2022-09-17T13:58:24;2.20;;;0.90;;
24335;SDS011;33098;52.400;16.880;2022-09-17T14:00:54;1.40;;;0.80;;
24335;SDS011;33098;52.400;16.880;2022-09-17T14:08:47;3.10;;;1.30;;
24335;SDS011;33098;52.400;16.880;2022-09-17T14:11:35;3.20;;;1.50;;
24335;SDS011;33098;52.400;16.880;2022-09-17T14:16:33;3.10;;;1.30;;
24335;SDS011;33098;52.400;16.880;2022-09-17T14:24:35;5.50;;;3.20;;
24335;SDS011;33098;52.400;16.880;2022-09-17T14:29:46;2.80;;;1.50;;
24335;SDS011;33098;52.400;16.880;2022-09-17T14:35:19;4.80;;;1.30;;
24335;SDS011;33098;52.400;16.880;2022-09-17T14:37:51;3.90;;;1.20;;
24335;SDS011;33098;52.400;16.880;2022-09-17T14:40:22;4.00;;;1.20;;
24335;SDS011;33098;52.400;16.880;2022-09-17T14:42:50;3.40;;;1.10;;
24335;SDS011;33098;52.400;16.880;2022-09-17T14:45:22;3.50;;;1.10;;
24335;SDS011;33098;52.400;16.880;2022-09-17T14:53:42;3.90;;;1.80;;
24335;SDS011;33098;52.400;16.880;2022-09-17T14:56:16;5.50;;;2.40;;
24335;SDS011;33098;52.400;16.880;2022-09-17T14:58:47;4.30;;;1.60;;
24335;SDS011;33098;52.400;16.880;2022-09-17T15:01:25;5.80;;;2.50;;
24335;SDS011;33098;52.400;16.880;2022-09-17T15:06:41;12.30;;;6.50;;
24335;SDS011;33098;52.400;16.880;2022-09-17T15:11:52;4.80;;;2.60;;
24335;SDS011;33098;52.400;16.880;2022-09-17T15:14:30;5.50;;;1.90;;
24335;SDS011;33098;52.400;16.880;2022-09-17T15:16:59;5.10;;;2.40;;
24335;SDS011;33098;52.400;16.880;2022-09-17T15:22:08;3.60;;;1.60;;
24335;SDS011;33098;52.400;16.880;2022-09-17T15:27:42;19.50;;;11.60;;
24335;SDS011;33098;52.400;16.880;2022-09-17T15:30:15;7.40;;;4.80;;
24335;SDS011;33098;52.400;16.880;2022-09-17T15:32:58;7.80;;;5.90;;
24335;SDS011;33098;52.400;16.880;2022-09-17T15:35:27;4.50;;;2.00;;
24335;SDS011;33098;52.400;16.880;2022-09-17T15:37:59;3.10;;;1.80;;
24335;SDS011;33098;52.400;16.880;2022-09-17T15:40:30;4.70;;;1.60;;
24335;SDS011;33098;52.400;16.880;2022-09-17T15:43:01;5.70;;;2.20;;
24335;SDS011;33098;52.400;16.880;2022-09-17T15:45:31;6.30;;;2.10;;
24335;SDS011;33098;52.400;16.880;2022-09-17T15:48:04;4.80;;;2.50;;
24335;SDS011;33098;52.400;16.880;2022-09-17T15:50:32;5.50;;;2.10;;
24335;SDS011;33098;52.400;16.880;2022-09-17T15:58:23;6.80;;;2.90;;
24335;SDS011;33098;52.400;16.880;2022-09-17T16:08:46;10.60;;;6.20;;
24335;SDS011;33098;52.400;16.880;2022-09-17T16:11:15;32.20;;;21.80;;
24335;SDS011;33098;52.400;16.880;2022-09-17T16:13:44;14.10;;;9.60;;
24335;SDS011;33098;52.400;16.880;2022-09-17T16:16:16;14.40;;;9.90;;
24335;SDS011;33098;52.400;16.880;2022-09-17T16:18:44;8.10;;;7.00;;
24335;SDS011;33098;52.400;16.880;2022-09-17T16:21:15;6.70;;;3.70;;
24335;SDS011;33098;52.400;16.880;2022-09-17T16:23:43;5.50;;;2.20;;
24335;SDS011;33098;52.400;16.880;2022-09-17T16:26:14;6.20;;;3.30;;
24335;SDS011;33098;52.400;16.880;2022-09-17T16:28:44;9.30;;;4.70;;
24335;SDS011;33098;52.400;16.880;2022-09-17T16:31:14;12.10;;;6.60;;
24335;SDS011;33098;52.400;16.880;2022-09-17T16:33:40;5.80;;;2.20;;
24335;SDS011;33098;52.400;16.880;2022-09-17T16:36:07;7.40;;;2.00;;
24335;SDS011;33098;52.400;16.880;2022-09-17T16:38:34;7.40;;;3.40;;
24335;SDS011;33098;52.400;16.880;2022-09-17T16:41:03;7.70;;;3.10;;
24335;SDS011;33098;52.400;16.880;2022-09-17T16:43:30;7.50;;;3.20;;
24335;SDS011;33098;52.400;16.880;2022-09-17T16:46:03;8.10;;;2.90;;
24335;SDS011;33098;52.400;16.880;2022-09-17T16:48:31;9.60;;;2.70;;
24335;SDS011;33098;52.400;16.880;2022-09-17T16:50:59;5.00;;;2.30;;
24335;SDS011;33098;52.400;16.880;2022-09-17T16:53:29;5.90;;;2.40;;
24335;SDS011;33098;52.400;16.880;2022-09-17T16:55:56;7.40;;;3.40;;
24335;SDS011;33098;52.400;16.880;2022-09-17T16:58:22;6.60;;;2.70;;
24335;SDS011;33098;52.400;16.880;2022-09-17T17:00:49;7.20;;;2.90;;
24335;SDS011;33098;52.400;16.880;2022-09-17T17:03:15;7.90;;;2.60;;
24335;SDS011;33098;52.400;16.880;2022-09-17T17:05:42;8.10;;;5.40;;
24335;SDS011;33098;52.400;16.880;2022-09-17T17:08:08;7.80;;;2.40;;
24335;SDS011;33098;52.400;16.880;2022-09-17T17:10:38;4.70;;;2.10;;
24335;SDS011;33098;52.400;16.880;2022-09-17T17:13:05;8.90;;;4.50;;
24335;SDS011;33098;52.400;16.880;2022-09-17T17:15:32;9.20;;;5.10;;
24335;SDS011;33098;52.400;16.880;2022-09-17T17:17:58;5.70;;;2.90;;
24335;SDS011;33098;52.400;16.880;2022-09-17T17:20:25;21.80;;;12.00;;
24335;SDS011;33098;52.400;16.880;2022-09-17T17:22:51;11.50;;;5.90;;
24335;SDS011;33098;52.400;16.880;2022-09-17T17:25:18;12.90;;;6.00;;
24335;SDS011;33098;52.400;16.880;2022-09-17T17:27:44;10.40;;;5.60;;
24335;SDS011;33098;52.400;16.880;2022-09-17T17:30:11;11.10;;;5.40;;
24335;SDS011;33098;52.400;16.880;2022-09-17T17:32:43;9.00;;;2.80;;
24335;SDS011;33098;52.400;16.880;2022-09-17T17:35:14;10.10;;;4.80;;
24335;SDS011;33098;52.400;16.880;2022-09-17T17:37:40;6.40;;;2.50;;
24335;SDS011;33098;52.400;16.880;2022-09-17T17:40:08;7.50;;;2.90;;
24335;SDS011;33098;52.400;16.880;2022-09-17T17:42:35;6.20;;;2.00;;
24335;SDS011;33098;52.400;16.880;2022-09-17T17:45:09;5.20;;;2.00;;
24335;SDS011;33098;52.400;16.880;2022-09-17T17:47:35;7.00;;;2.40;;
24335;SDS011;33098;52.400;16.880;2022-09-17T17:50:02;5.20;;;1.90;;
24335;SDS011;33098;52.400;16.880;2022-09-17T17:52:29;6.70;;;2.30;;
24335;SDS011;33098;52.400;16.880;2022-09-17T17:54:59;18.20;;;9.60;;
24335;SDS011;33098;52.400;16.880;2022-09-17T17:57:25;6.70;;;2.30;;
24335;SDS011;33098;52.400;16.880;2022-09-17T17:59:52;5.60;;;2.10;;
24335;SDS011;33098;52.400;16.880;2022-09-17T18:02:20;5.00;;;2.00;;
24335;SDS011;33098;52.400;16.880;2022-09-17T18:04:47;6.70;;;2.30;;
24335;SDS011;33098;52.400;16.880;2022-09-17T18:07:14;5.90;;;2.30;;
24335;SDS011;33098;52.400;16.880;2022-09-17T18:09:40;13.50;;;6.70;;
24335;SDS011;33098;52.400;16.880;2022-09-17T18:12:07;8.70;;;3.60;;
24335;SDS011;33098;52.400;16.880;2022-09-17T18:14:33;10.30;;;4.60;;